createdAt,value
2022-12-19T00:02:28.399Z,3.67
2022-12-19T00:07:26.902Z,3.86
2022-12-19T00:12:23.936Z,3.87
2022-12-19T00:17:20.653Z,3.88
2022-12-19T00:22:20.260Z,3.91
2022-12-19T00:27:17.163Z,4.04
2022-12-19T00:32:13.961Z,3.61
2022-12-19T00:37:13.558Z,3.78
2022-12-19T00:42:11.155Z,3.63
2022-12-19T00:47:08.022Z,3.61
2022-12-19T00:52:07.973Z,3.74
2022-12-19T00:57:04.627Z,3.40
2022-12-19T01:02:02.225Z,3.76
2022-12-19T01:07:02.700Z,3.63
2022-12-19T01:12:20.587Z,3.56
2022-12-19T01:17:24.807Z,3.67
2022-12-19T01:22:24.973Z,3.54
2022-12-19T01:27:23.997Z,3.10
2022-12-19T01:32:25.205Z,2.92
2022-12-19T01:37:22.622Z,2.81
2022-12-19T01:42:23.051Z,2.82
2022-12-19T01:47:20.798Z,2.50
2022-12-19T01:52:24.691Z,2.69
2022-12-19T01:57:22.718Z,2.63
2022-12-19T02:02:21.885Z,2.31
2022-12-19T02:07:20.058Z,2.08
2022-12-19T02:12:17.131Z,2.16
2022-12-19T02:17:24.812Z,2.23
2022-12-19T02:22:33.953Z,1.89
2022-12-19T02:27:45.760Z,2.11
2022-12-19T02:32:49.769Z,2.23
2022-12-19T02:37:49.528Z,2.34
2022-12-19T02:42:53.088Z,2.12
2022-12-19T02:47:51.756Z,2.12
2022-12-19T02:52:51.308Z,2.23
2022-12-19T02:58:00.116Z,1.71
2022-12-19T03:03:04.229Z,1.73
2022-12-19T03:08:04.174Z,1.86
2022-12-19T03:13:07.887Z,1.74
2022-12-19T03:18:06.538Z,1.60
2022-12-19T03:23:04.994Z,1.72
2022-12-19T03:28:07.199Z,1.54
2022-12-19T03:33:04.377Z,1.65
2022-12-19T03:38:02.478Z,1.63
2022-12-19T03:43:17.324Z,1.83
2022-12-19T03:48:16.289Z,1.54
2022-12-19T03:53:20.675Z,1.63
2022-12-19T03:58:20.227Z,1.72
2022-12-19T04:03:17.798Z,1.43
2022-12-19T04:08:16.111Z,1.19
2022-12-19T04:13:14.942Z,1.49
2022-12-19T04:18:13.010Z,1.27
2022-12-19T04:23:13.971Z,1.42
2022-12-19T04:28:14.026Z,1.39
2022-12-19T04:33:11.249Z,1.38
2022-12-19T04:38:08.532Z,1.20
2022-12-19T04:43:07.116Z,1.37
2022-12-19T04:48:04.920Z,1.15
2022-12-19T04:53:04.508Z,0.97
2022-12-19T04:58:01.277Z,0.90
2022-12-19T05:02:58.185Z,1.27
2022-12-19T05:07:55.947Z,1.19
2022-12-19T05:12:54.042Z,0.88
2022-12-19T05:17:51.023Z,1.04
2022-12-19T05:22:47.919Z,0.65
2022-12-19T05:27:45.533Z,0.58
2022-12-19T05:32:42.400Z,0.85
2022-12-19T05:37:39.356Z,0.75
2022-12-19T05:42:36.256Z,1.12
2022-12-19T05:47:33.697Z,0.94
2022-12-19T05:52:30.450Z,0.80
2022-12-19T05:57:28.529Z,0.69
2022-12-19T06:02:27.445Z,0.68
2022-12-19T06:07:38.323Z,0.72
2022-12-19T06:12:35.197Z,0.88
2022-12-19T06:17:33.841Z,0.88
2022-12-19T06:22:44.263Z,0.72
2022-12-19T06:27:45.658Z,0.75
2022-12-19T06:38:16.428Z,1.01
2022-12-19T06:43:19.141Z,1.21
2022-12-19T06:48:18.428Z,1.05
2022-12-19T06:53:16.396Z,0.88
2022-12-19T06:58:20.182Z,1.21
2022-12-19T07:03:35.400Z,1.39
2022-12-19T07:08:36.372Z,1.67
2022-12-19T07:13:48.378Z,1.68
2022-12-19T07:18:45.370Z,0.87
2022-12-19T07:23:50.650Z,0.84
2022-12-19T07:28:51.244Z,1.27
2022-12-19T07:34:00.034Z,1.30
2022-12-19T07:39:01.950Z,1.65
2022-12-19T07:44:18.160Z,1.10
2022-12-19T07:49:37.612Z,1.32
2022-12-19T07:54:50.195Z,1.53
2022-12-19T07:59:49.210Z,1.58
2022-12-19T08:04:46.231Z,1.46
2022-12-19T08:09:47.996Z,1.56
2022-12-19T08:14:44.896Z,1.69
2022-12-19T08:19:44.315Z,1.03
2022-12-19T08:24:45.812Z,1.07
2022-12-19T08:29:44.361Z,1.01
2022-12-19T08:34:54.039Z,1.48
2022-12-19T08:40:06.851Z,1.51
2022-12-19T08:50:34.918Z,1.37
2022-12-19T08:55:58.075Z,1.88
2022-12-19T09:01:47.340Z,1.82
2022-12-19T09:07:45.193Z,1.56
2022-12-19T09:12:59.356Z,2.10
2022-12-19T09:24:10.083Z,1.58
2022-12-19T09:35:33.320Z,2.26
2022-12-19T09:40:44.608Z,2.05
2022-12-19T09:46:05.296Z,2.18
2022-12-19T09:51:16.406Z,2.36
2022-12-19T09:56:45.954Z,1.90
2022-12-19T10:01:52.621Z,2.03
2022-12-19T10:07:26.351Z,2.17
2022-12-19T10:13:21.892Z,1.92
2022-12-19T10:18:35.166Z,2.17
2022-12-19T10:29:27.316Z,2.18
2022-12-19T10:34:38.560Z,2.51
2022-12-19T10:39:47.071Z,2.15
2022-12-19T10:44:45.830Z,2.06
2022-12-19T10:51:06.929Z,2.68
2022-12-19T10:58:42.130Z,2.52
2022-12-19T11:09:12.965Z,2.09
2022-12-19T11:18:48.314Z,2.09
2022-12-19T11:26:32.447Z,2.36
2022-12-19T11:30:35.208Z,2.28
2022-12-19T11:31:51.445Z,1.91
2022-12-19T11:35:46.033Z,2.26
2022-12-19T11:40:49.281Z,2.09
2022-12-19T11:45:54.907Z,1.88
2022-12-19T11:50:57.978Z,1.88
2022-12-19T11:56:01.530Z,1.89
2022-12-19T12:01:06.810Z,1.58
2022-12-19T12:06:12.131Z,1.58
2022-12-19T12:16:41.367Z,1.49
2022-12-19T12:30:57.204Z,1.78
2022-12-19T12:31:01.729Z,2.13
2022-12-19T12:32:04.826Z,2.20
2022-12-19T12:35:46.218Z,2.16
2022-12-19T12:38:27.050Z,2.22
2022-12-19T12:43:35.409Z,2.06
2022-12-19T12:48:34.695Z,2.12
2022-12-19T12:53:34.664Z,1.98
2022-12-19T12:59:04.702Z,2.26
2022-12-19T13:04:05.490Z,2.79
2022-12-19T13:09:03.908Z,2.31
2022-12-19T13:14:00.641Z,2.38
2022-12-19T13:19:03.808Z,2.15
2022-12-19T13:24:37.539Z,2.28
2022-12-19T13:29:53.089Z,2.39
2022-12-19T13:36:49.238Z,1.89
2022-12-19T13:40:50.403Z,2.07
2022-12-19T13:45:49.661Z,1.99
2022-12-19T13:50:47.698Z,1.82
2022-12-19T13:55:50.428Z,1.95
2022-12-19T14:00:53.445Z,2.16
2022-12-19T14:06:16.939Z,1.83
2022-12-19T14:11:40.722Z,1.94
2022-12-19T14:16:43.873Z,1.90
2022-12-19T14:22:11.069Z,2.06
2022-12-19T14:28:18.228Z,1.92
2022-12-19T14:33:53.579Z,2.01
2022-12-19T14:39:20.703Z,1.99
2022-12-19T14:43:56.293Z,1.95
2022-12-19T14:54:04.129Z,1.96
2022-12-19T14:55:18.567Z,2.13
2022-12-19T14:59:27.824Z,1.93
2022-12-19T15:04:52.361Z,2.07
2022-12-19T15:10:59.360Z,2.18
2022-12-19T15:15:19.268Z,2.18
2022-12-19T15:20:16.624Z,2.39
2022-12-19T15:25:36.164Z,2.22
2022-12-19T15:30:35.772Z,2.16
2022-12-19T15:35:32.397Z,1.80
2022-12-19T15:40:28.990Z,1.85
2022-12-19T15:45:25.914Z,1.94
2022-12-19T15:50:24.548Z,1.87
2022-12-19T15:55:24.177Z,1.50
2022-12-19T16:00:23.059Z,1.52
2022-12-19T16:05:20.871Z,1.66
2022-12-19T16:10:20.495Z,1.67
2022-12-19T16:15:19.916Z,1.97
2022-12-19T16:20:18.591Z,1.99
2022-12-19T16:25:15.371Z,1.80
2022-12-19T16:30:18.887Z,1.59
2022-12-19T16:35:24.043Z,1.57
2022-12-19T16:40:31.624Z,1.50
2022-12-19T16:45:31.492Z,1.78
2022-12-19T16:50:29.381Z,1.76
2022-12-19T16:55:32.092Z,1.67
2022-12-19T17:00:36.955Z,1.83
2022-12-19T17:05:37.041Z,1.63
2022-12-19T17:10:34.179Z,1.60
2022-12-19T17:15:52.612Z,1.85
2022-12-19T17:20:59.273Z,2.06
2022-12-19T17:25:56.290Z,2.04
2022-12-19T17:30:54.129Z,1.99
2022-12-19T17:35:50.808Z,1.93
2022-12-19T17:40:48.072Z,1.89
2022-12-19T17:45:44.838Z,2.10
2022-12-19T17:50:42.033Z,2.13
2022-12-19T17:55:39.882Z,1.91
2022-12-19T18:00:37.737Z,1.53
2022-12-19T18:05:35.634Z,1.30
2022-12-19T18:10:32.443Z,1.47
2022-12-19T18:15:29.413Z,1.51
2022-12-19T18:20:31.483Z,1.28
2022-12-19T18:25:30.560Z,1.42
2022-12-19T18:30:27.679Z,1.57
2022-12-19T18:35:28.479Z,1.31
2022-12-19T18:40:31.166Z,0.96
2022-12-19T18:45:32.531Z,0.81
2022-12-19T18:50:29.198Z,1.44
2022-12-19T18:55:27.571Z,0.94
2022-12-19T19:00:26.254Z,1.16
2022-12-19T19:05:23.895Z,1.14
2022-12-19T19:10:24.396Z,0.82
2022-12-19T19:15:33.131Z,0.77
2022-12-19T19:20:33.735Z,1.02
2022-12-19T19:25:31.339Z,0.80
2022-12-19T19:30:28.558Z,0.40
2022-12-19T19:35:26.915Z,0.48
2022-12-19T19:40:23.748Z,0.74
2022-12-19T19:45:20.539Z,0.65
2022-12-19T19:50:17.934Z,0.77
2022-12-19T19:55:17.777Z,1.30
2022-12-19T20:00:20.837Z,1.05
2022-12-19T20:05:17.575Z,0.91
2022-12-19T20:10:14.214Z,0.81
2022-12-19T20:15:11.698Z,0.94
2022-12-19T20:20:08.863Z,0.99
2022-12-19T20:25:05.621Z,1.03
2022-12-19T20:30:02.255Z,1.27
2022-12-19T20:34:59.660Z,1.60
2022-12-19T20:39:56.212Z,0.98
2022-12-19T20:44:55.567Z,1.49
2022-12-19T20:49:52.226Z,1.20
2022-12-19T20:54:49.815Z,1.01
2022-12-19T20:59:46.353Z,1.44
2022-12-19T21:04:42.982Z,1.61
2022-12-19T21:09:44.178Z,1.44
2022-12-19T21:14:41.621Z,1.48
2022-12-19T21:19:38.204Z,1.58
2022-12-19T21:24:35.316Z,1.72
2022-12-19T21:29:31.943Z,1.71
2022-12-19T21:34:29.230Z,1.09
2022-12-19T21:39:25.832Z,1.57
2022-12-19T21:44:22.437Z,1.45
2022-12-19T21:49:19.579Z,1.67
2022-12-19T21:54:16.899Z,1.77
2022-12-19T21:59:14.548Z,1.87
2022-12-19T22:04:12.190Z,1.26
2022-12-19T22:09:11.811Z,1.50
2022-12-19T22:14:10.429Z,1.38
2022-12-19T22:19:06.983Z,1.63
2022-12-19T22:24:04.139Z,1.45
2022-12-19T22:29:00.883Z,1.58
2022-12-19T22:33:59.281Z,1.57
2022-12-19T22:38:56.233Z,1.34
2022-12-19T22:43:53.422Z,1.40
2022-12-19T22:48:50.387Z,1.25
2022-12-19T22:53:47.975Z,1.59
2022-12-19T22:58:45.526Z,1.69
2022-12-19T23:03:42.412Z,1.60
2022-12-19T23:08:41.175Z,1.74
2022-12-19T23:13:38.790Z,1.86
2022-12-19T23:18:35.440Z,1.80
2022-12-19T23:23:32.351Z,1.96
2022-12-19T23:28:29.043Z,1.93
2022-12-19T23:33:27.847Z,2.09
2022-12-19T23:38:24.408Z,2.27
2022-12-19T23:43:20.949Z,2.35
2022-12-19T23:48:17.524Z,2.31
2022-12-19T23:53:14.695Z,2.39
2022-12-19T23:58:14.693Z,2.29
